Time;durP1;ratioP1;P1;durP2;ratioP2;P2;SDS_P1;SDS_P2;PMS_P1;PMS_P2;Temp;Humidity;BMP_temperature;BMP_pressure;BME280_temperature;BME280_humidity;BME280_pressure;Samples;Min_cycle;Max_cycle;Signal;HPM_P1;HPM_P2
2022/03/22 00:01:56;;;;;;;;;3.00;1.00;19.10;99.90;;;;;;5060569;28;9304;-47
2022/03/22 00:04:27;;;;;;;;;2.33;2.00;19.10;99.90;;;;;;5066295;28;9418;-48
2022/03/22 00:06:59;;;;;;;;;1.00;1.00;19.10;99.90;;;;;;5067446;28;9341;-48
2022/03/22 00:09:29;;;;;;;;;2.00;2.00;19.00;99.90;;;;;;5069237;28;9403;-48
2022/03/22 00:12:00;;;;;;;;;4.00;3.00;19.00;99.90;;;;;;5067748;28;9459;-46
2022/03/22 00:14:31;;;;;;;;;2.33;2.33;18.90;99.90;;;;;;5073503;28;9550;-47
2022/03/22 00:17:23;;;;;;;;;5.00;2.00;18.90;99.90;;;;;;5064623;28;9475;-50
2022/03/22 00:19:59;;;;;;;;;2.25;2.25;18.90;99.90;;;;;;5074960;28;9448;-47
2022/03/22 00:22:32;;;;;;;;;2.75;2.75;19.00;99.90;;;;;;5069264;28;9993;-48
2022/03/22 00:25:02;;;;;;;;;1.25;1.25;18.90;99.90;;;;;;5066186;28;9627;-45
2022/03/22 00:27:51;;;;;;;;;3.50;3.50;18.80;99.90;;;;;;5064747;28;9711;-46
2022/03/22 00:30:31;;;;;;;;;3.00;1.25;18.80;99.90;;;;;;5070766;28;9833;-46
2022/03/22 00:33:06;;;;;;;;;5.00;2.75;18.70;99.90;;;;;;5067514;28;9973;-45
2022/03/22 00:35:37;;;;;;;;;2.00;2.00;18.70;99.90;;;;;;5072948;28;9687;-46
2022/03/22 00:38:16;;;;;;;;;2.67;2.67;18.70;99.90;;;;;;5073202;28;9639;-51
2022/03/22 00:40:47;;;;;;;;;1.00;1.00;18.70;99.90;;;;;;5074139;28;9553;-46
2022/03/22 00:43:17;;;;;;;;;1.75;1.75;18.60;99.90;;;;;;5070972;28;9685;-44
2022/03/22 00:45:48;;;;;;;;;4.25;3.00;18.60;99.90;;;;;;5067629;28;9772;-50
2022/03/22 00:48:21;;;;;;;;;4.00;4.00;18.70;99.90;;;;;;5073954;28;10414;-45
2022/03/22 00:50:52;;;;;;;;;4.75;3.00;18.70;99.90;;;;;;5063735;28;10356;-45
2022/03/22 00:53:22;;;;;;;;;3.00;3.00;18.60;99.90;;;;;;5076096;28;9700;-46
2022/03/22 00:55:52;;;;;;;;;3.75;3.75;18.70;99.90;;;;;;5065236;28;10334;-48
2022/03/22 00:58:23;;;;;;;;;8.00;4.50;18.60;99.90;;;;;;5065973;28;9760;-48
2022/03/22 01:00:55;;;;;;;;;5.25;4.00;18.60;99.90;;;;;;5071883;28;10350;-49
2022/03/22 01:03:30;;;;;;;;;3.00;3.00;18.60;99.90;;;;;;5063985;28;10434;-49
2022/03/22 01:06:01;;;;;;;;;8.25;5.00;18.60;99.90;;;;;;5065655;28;9745;-46
2022/03/22 01:08:32;;;;;;;;;3.00;3.00;18.60;99.90;;;;;;5073921;28;9646;-46
2022/03/22 01:11:03;;;;;;;;;4.00;4.00;18.50;99.90;;;;;;5067722;28;9565;-47
2022/03/22 01:13:35;;;;;;;;;1.75;1.75;18.50;99.90;;;;;;5065414;28;9848;-46
2022/03/22 01:16:05;;;;;;;;;1.00;1.00;18.50;99.90;;;;;;5063635;28;9745;-48
2022/03/22 01:18:36;;;;;;;;;2.50;1.75;18.50;99.90;;;;;;5063719;28;9761;-45
2022/03/22 01:21:05;;;;;;;;;4.50;2.00;18.50;99.90;;;;;;5074386;28;10521;-46
2022/03/22 01:23:36;;;;;;;;;3.50;3.50;18.50;99.90;;;;;;5068579;28;9728;-47
2022/03/22 01:26:09;;;;;;;;;2.75;2.75;18.50;99.90;;;;;;5078276;28;9686;-47
2022/03/22 01:28:39;;;;;;;;;1.00;1.00;18.40;99.90;;;;;;5067357;28;10016;-47
2022/03/22 01:31:11;;;;;;;;;2.50;2.50;18.40;99.90;;;;;;5060201;28;9799;-46
2022/03/22 01:33:42;;;;;;;;;3.50;3.50;18.40;99.90;;;;;;5066387;28;9690;-47
2022/03/22 01:36:13;;;;;;;;;3.50;3.50;18.30;99.90;;;;;;5068108;28;10025;-49
2022/03/22 01:38:46;;;;;;;;;3.00;1.75;18.30;99.90;;;;;;5076589;28;9937;-47
2022/03/22 01:41:17;;;;;;;;;0.75;0.75;18.30;99.90;;;;;;5068494;28;9848;-48
2022/03/22 01:43:49;;;;;;;;;3.00;1.50;18.30;99.90;;;;;;5074028;28;9968;-47
2022/03/22 01:46:25;;;;;;;;;1.75;1.75;18.30;99.90;;;;;;5068924;28;9928;-51
2022/03/22 01:48:56;;;;;;;;;3.00;3.00;18.30;99.90;;;;;;5071387;28;10062;-46
2022/03/22 01:51:32;;;;;;;;;2.25;2.25;18.30;99.90;;;;;;5069543;28;10073;-46
2022/03/22 01:54:03;;;;;;;;;2.00;2.00;18.30;99.90;;;;;;5072404;28;10110;-48
2022/03/22 01:56:36;;;;;;;;;3.00;3.00;18.30;99.90;;;;;;5073359;28;10494;-49
2022/03/22 01:59:05;;;;;;;;;1.75;0.00;18.30;99.90;;;;;;5070529;27;10409;-48
2022/03/22 02:07:31;;;;;;;;;4.75;3.00;18.30;99.90;;;;;;5055167;27;10120;-47
2022/03/22 02:10:03;;;;;;;;;5.00;5.00;18.20;99.90;;;;;;5077086;28;10252;-45
2022/03/22 02:12:36;;;;;;;;;2.25;2.25;18.20;99.90;;;;;;5077577;28;10929;-47
2022/03/22 02:15:07;;;;;;;;;6.00;4.00;18.20;99.90;;;;;;5078255;28;10540;-48
2022/03/22 02:17:39;;;;;;;;;3.75;3.75;18.10;99.90;;;;;;5071155;28;11293;-46
2022/03/22 02:20:11;;;;;;;;;7.75;5.75;18.10;99.90;;;;;;5071241;28;10549;-44
2022/03/22 02:22:53;;;;;;;;;3.75;3.50;18.00;99.90;;;;;;5076977;28;11365;-47
2022/03/22 02:25:22;;;;;;;;;6.25;6.25;18.00;99.90;;;;;;5075159;27;11260;-50
2022/03/22 02:27:53;;;;;;;;;8.50;6.00;18.10;99.90;;;;;;5075157;28;10506;-47
2022/03/22 02:30:23;;;;;;;;;7.75;5.00;18.10;99.90;;;;;;5052967;28;10578;-46
2022/03/22 02:33:03;;;;;;;;;6.50;6.50;18.00;99.90;;;;;;5068202;28;10335;-49
2022/03/22 02:35:33;;;;;;;;;7.75;6.25;18.00;99.90;;;;;;5070787;28;10376;-48
2022/03/22 02:38:04;;;;;;;;;6.00;4.50;18.00;99.90;;;;;;5078506;28;10518;-50
2022/03/22 02:40:35;;;;;;;;;4.25;4.25;17.90;99.90;;;;;;5077544;28;10503;-49
2022/03/22 02:43:05;;;;;;;;;6.00;6.00;17.90;99.90;;;;;;5070479;28;10432;-49
2022/03/22 02:45:35;;;;;;;;;5.25;5.25;17.90;99.90;;;;;;5076158;28;10787;-47
2022/03/22 02:48:06;;;;;;;;;3.50;3.50;18.00;99.90;;;;;;5071110;28;10737;-49
2022/03/22 02:50:36;;;;;;;;;5.00;4.25;18.00;99.90;;;;;;5080047;28;10359;-49
2022/03/22 02:53:09;;;;;;;;;5.25;3.50;17.90;99.90;;;;;;5075303;28;10285;-48
2022/03/22 02:55:40;;;;;;;;;5.50;4.25;17.90;99.90;;;;;;5071813;28;10501;-48
2022/03/22 02:58:11;;;;;;;;;5.00;5.00;17.80;99.90;;;;;;5067521;28;10574;-51
2022/03/22 03:00:41;;;;;;;;;5.25;5.25;17.80;99.90;;;;;;5072764;28;10479;-47
2022/03/22 03:03:11;;;;;;;;;4.00;4.00;17.80;99.90;;;;;;5065971;28;10388;-49
2022/03/22 03:05:41;;;;;;;;;4.75;4.75;17.80;99.90;;;;;;5078155;28;10970;-47
2022/03/22 03:08:12;;;;;;;;;5.50;4.00;17.80;99.90;;;;;;5080963;28;10220;-48
2022/03/22 03:10:44;;;;;;;;;5.25;5.25;17.80;99.90;;;;;;5073175;28;10169;-47
2022/03/22 03:13:15;;;;;;;;;3.50;3.50;17.80;99.90;;;;;;5073092;28;10145;-46
2022/03/22 03:15:46;;;;;;;;;4.25;4.25;17.80;99.90;;;;;;5079538;28;10160;-46
2022/03/22 03:18:18;;;;;;;;;3.75;3.75;17.70;99.90;;;;;;5070080;28;10221;-48
2022/03/22 03:20:49;;;;;;;;;3.00;3.00;17.70;99.90;;;;;;5065462;28;10392;-49
2022/03/22 03:23:19;;;;;;;;;3.25;3.25;17.60;99.90;;;;;;5073213;28;10531;-49
2022/03/22 03:25:51;;;;;;;;;4.75;3.00;17.70;99.90;;;;;;5069518;28;10162;-46
2022/03/22 03:28:21;;;;;;;;;3.25;3.25;17.70;99.90;;;;;;5074740;28;10822;-48
2022/03/22 03:30:51;;;;;;;;;5.75;4.00;17.70;99.90;;;;;;5068807;28;10310;-45
2022/03/22 03:33:21;;;;;;;;;2.50;0.00;17.60;99.90;;;;;;5072289;28;10769;-47
2022/03/22 03:35:51;;;;;;;;;3.00;2.50;17.60;99.90;;;;;;5074118;28;10402;-50
2022/03/22 03:38:24;;;;;;;;;5.00;4.00;17.60;99.90;;;;;;5068398;28;10638;-46
2022/03/22 03:43:43;;;;;;;;;7.00;5.00;17.50;99.90;;;;;;5072642;28;10818;-47
2022/03/22 03:49:03;;;;;;;;;11.50;10.25;17.50;99.90;;;;;;5075522;28;11534;-49
2022/03/22 03:51:38;;;;;;;;;13.50;11.25;17.50;99.90;;;;;;5075266;28;11653;-49
2022/03/22 03:54:09;;;;;;;;;15.25;15.00;17.40;99.90;;;;;;5074504;28;11608;-46
2022/03/22 03:56:40;;;;;;;;;24.25;22.75;17.40;99.90;;;;;;5075737;28;12356;-49
2022/03/22 03:59:10;;;;;;;;;56.00;47.33;17.40;99.90;;;;;;5071749;28;11507;-49
2022/03/22 04:01:43;;;;;;;;;74.00;67.33;17.40;99.90;;;;;;5070232;28;8872;-47
2022/03/22 04:04:16;;;;;;;;;74.00;66.33;17.40;99.90;;;;;;5062896;28;8968;-50
2022/03/22 04:06:47;;;;;;;;;71.33;63.67;17.40;99.90;;;;;;5073877;28;9329;-50
2022/03/22 04:09:18;;;;;;;;;68.67;60.00;17.40;99.90;;;;;;5078066;28;8840;-47
2022/03/22 04:11:49;;;;;;;;;66.50;59.00;17.30;99.90;;;;;;5079931;28;8875;-48
2022/03/22 04:14:19;;;;;;;;;60.50;52.75;17.30;99.90;;;;;;5069648;28;11651;-46
2022/03/22 04:16:50;;;;;;;;;45.50;37.75;17.30;99.90;;;;;;5075700;28;11697;-49
2022/03/22 04:19:22;;;;;;;;;26.50;23.50;17.30;99.90;;;;;;5076084;28;12359;-48
2022/03/22 04:21:53;;;;;;;;;16.50;16.00;17.20;99.90;;;;;;5074974;28;11528;-48
2022/03/22 04:24:22;;;;;;;;;14.50;13.00;17.20;99.90;;;;;;5075846;28;12346;-48
2022/03/22 04:26:53;;;;;;;;;17.75;16.00;17.20;99.90;;;;;;5067988;28;10997;-48
2022/03/22 04:35:03;;;;;;;;;16.50;13.75;17.10;99.90;;;;;;5072705;28;11443;-47
2022/03/22 04:37:34;;;;;;;;;13.25;12.00;17.10;99.90;;;;;;5068720;28;11517;-46
2022/03/22 04:40:07;;;;;;;;;10.25;10.25;17.10;99.90;;;;;;5071172;28;11926;-47
2022/03/22 04:42:38;;;;;;;;;8.75;7.00;17.10;99.90;;;;;;5064929;28;11141;-46
2022/03/22 04:45:10;;;;;;;;;8.75;7.25;17.10;99.90;;;;;;5068786;28;11015;-47
2022/03/22 04:47:44;;;;;;;;;9.25;8.00;17.00;99.90;;;;;;5066603;28;11414;-51
2022/03/22 04:50:18;;;;;;;;;10.00;10.00;17.00;99.90;;;;;;5066627;28;10876;-50
2022/03/22 04:58:25;;;;;;;;;7.00;7.00;16.90;99.90;;;;;;5073177;28;10858;-45
2022/03/22 05:00:56;;;;;;;;;10.75;10.00;16.90;99.90;;;;;;5065015;28;10712;-48
2022/03/22 05:03:27;;;;;;;;;10.50;10.50;16.80;99.90;;;;;;5069145;28;10791;-49
2022/03/22 05:08:50;;;;;;;;;8.00;8.00;16.80;99.90;;;;;;5070999;27;11033;-48
2022/03/22 05:11:20;;;;;;;;;5.25;4.25;16.80;99.90;;;;;;5073602;28;10873;-47
2022/03/22 05:13:50;;;;;;;;;8.50;8.50;16.80;99.90;;;;;;5074949;28;10800;-45
2022/03/22 05:16:21;;;;;;;;;10.50;9.00;16.70;99.90;;;;;;5071993;28;10965;-48
2022/03/22 05:18:55;;;;;;;;;9.00;9.00;16.70;99.90;;;;;;5077393;28;10957;-47
2022/03/22 05:21:27;;;;;;;;;8.00;8.00;16.70;99.90;;;;;;5069898;28;11118;-48
2022/03/22 05:23:59;;;;;;;;;6.50;5.75;16.70;99.90;;;;;;5070380;28;10817;-46
2022/03/22 05:26:29;;;;;;;;;7.75;7.75;16.70;99.90;;;;;;5078124;28;10949;-49
2022/03/22 05:29:00;;;;;;;;;5.75;5.75;16.60;99.90;;;;;;5067047;28;10814;-50
2022/03/22 05:31:31;;;;;;;;;6.00;6.00;16.60;99.90;;;;;;5064514;28;10950;-48
2022/03/22 05:34:04;;;;;;;;;5.75;5.00;16.60;99.90;;;;;;5065797;28;10828;-50
2022/03/22 05:36:35;;;;;;;;;6.00;5.75;16.60;99.90;;;;;;5072395;28;11029;-46
2022/03/22 05:39:05;;;;;;;;;10.50;8.75;16.50;99.90;;;;;;5071129;28;10832;-49
2022/03/22 05:41:36;;;;;;;;;8.50;7.75;16.50;99.90;;;;;;5076016;28;10957;-48
2022/03/22 05:44:10;;;;;;;;;8.25;8.25;16.50;99.90;;;;;;5069394;28;10875;-48
2022/03/22 05:46:41;;;;;;;;;8.00;8.00;16.50;99.90;;;;;;5068141;28;11449;-48
2022/03/22 05:49:13;;;;;;;;;7.50;6.25;16.40;99.90;;;;;;5062847;28;10756;-46
2022/03/22 05:51:44;;;;;;;;;7.75;7.75;16.40;99.90;;;;;;5081523;28;10991;-50
2022/03/22 05:54:13;;;;;;;;;6.00;6.00;16.40;99.90;;;;;;5066460;28;10862;-49
2022/03/22 05:56:43;;;;;;;;;6.75;6.75;16.40;99.90;;;;;;5075772;28;10671;-47
2022/03/22 05:59:14;;;;;;;;;7.00;7.00;16.30;99.90;;;;;;5073458;28;10793;-47
2022/03/22 06:01:46;;;;;;;;;8.00;7.00;16.30;99.90;;;;;;5075408;28;10949;-49
2022/03/22 06:04:16;;;;;;;;;5.25;5.25;16.30;99.90;;;;;;5067069;28;10965;-45
2022/03/22 06:06:47;;;;;;;;;10.00;8.50;16.30;99.90;;;;;;5066517;28;11981;-49
2022/03/22 06:09:17;;;;;;;;;6.25;6.25;16.30;99.90;;;;;;5072751;28;10937;-47
2022/03/22 06:11:48;;;;;;;;;10.00;8.00;16.30;99.90;;;;;;5071772;28;10858;-46
2022/03/22 06:14:18;;;;;;;;;5.75;5.75;16.20;99.90;;;;;;5074972;28;10947;-46
2022/03/22 06:16:49;;;;;;;;;5.00;5.00;16.20;99.90;;;;;;5067105;28;10789;-45
2022/03/22 06:19:19;;;;;;;;;7.00;7.00;16.20;99.90;;;;;;5075192;28;10789;-49
2022/03/22 06:21:49;;;;;;;;;5.50;5.50;16.10;99.90;;;;;;5072473;28;10898;-48
2022/03/22 06:24:18;;;;;;;;;8.00;8.00;16.10;99.90;;;;;;5072063;28;11126;-47
2022/03/22 06:26:49;;;;;;;;;5.50;5.50;16.10;99.90;;;;;;5074342;28;10952;-47
2022/03/22 06:29:19;;;;;;;;;7.00;7.00;16.10;99.90;;;;;;5071279;28;10991;-47
2022/03/22 06:31:50;;;;;;;;;8.00;7.00;16.10;99.90;;;;;;5066463;28;11337;-46
2022/03/22 06:34:19;;;;;;;;;6.50;6.50;16.10;99.90;;;;;;5068884;28;10997;-46
2022/03/22 06:36:50;;;;;;;;;7.75;5.00;16.00;99.90;;;;;;5076417;28;10960;-45
2022/03/22 06:39:20;;;;;;;;;6.50;6.50;16.00;99.90;;;;;;5077123;28;10907;-46
2022/03/22 06:41:51;;;;;;;;;5.25;5.25;16.00;99.90;;;;;;5077128;28;11156;-45
2022/03/22 06:44:21;;;;;;;;;10.25;8.25;16.00;99.90;;;;;;5071441;28;11072;-47
2022/03/22 06:46:51;;;;;;;;;6.75;6.75;16.00;99.90;;;;;;5079297;28;10892;-46
2022/03/22 06:49:23;;;;;;;;;9.50;8.00;16.00;99.90;;;;;;5076924;28;11028;-49
2022/03/22 06:51:55;;;;;;;;;8.75;7.50;15.90;99.90;;;;;;5066908;28;10956;-48
2022/03/22 06:54:27;;;;;;;;;7.75;7.00;15.90;99.90;;;;;;5070792;28;11103;-50
2022/03/22 06:56:58;;;;;;;;;7.25;5.25;15.90;99.90;;;;;;5076731;28;11060;-47
2022/03/22 06:59:28;;;;;;;;;8.00;6.25;15.90;99.90;;;;;;5075478;28;10927;-48
2022/03/22 07:01:59;;;;;;;;;8.00;7.00;15.80;99.90;;;;;;5073906;28;11244;-47
2022/03/22 07:04:30;;;;;;;;;8.50;7.50;15.80;99.90;;;;;;5068018;28;11325;-48
2022/03/22 07:07:02;;;;;;;;;7.50;7.50;15.80;99.90;;;;;;5073776;28;11390;-49
2022/03/22 07:09:33;;;;;;;;;7.25;7.25;15.80;99.90;;;;;;5064678;28;11185;-48
2022/03/22 07:12:03;;;;;;;;;9.50;8.00;15.80;99.90;;;;;;5075880;28;11584;-46
2022/03/22 07:14:43;;;;;;;;;9.25;8.00;15.70;99.90;;;;;;5070119;28;11410;-47
2022/03/22 07:17:12;;;;;;;;;0.00;0.00;15.70;99.90;;;;;;5067439;28;11428;-49
2022/03/22 07:19:51;;;;;;;;;7.50;7.50;15.70;99.90;;;;;;5076049;28;11002;-46
2022/03/22 07:22:24;;;;;;;;;7.50;7.50;15.70;99.90;;;;;;5063290;28;11864;-45
2022/03/22 07:24:54;;;;;;;;;8.75;8.50;15.70;99.90;;;;;;5071303;28;11098;-48
2022/03/22 07:27:24;;;;;;;;;6.25;6.25;15.60;99.90;;;;;;5076762;28;12006;-48
2022/03/22 07:29:54;;;;;;;;;5.00;5.00;15.60;99.90;;;;;;5074116;28;11196;-46
2022/03/22 07:32:25;;;;;;;;;6.00;6.00;15.60;99.90;;;;;;5076126;28;10974;-47
2022/03/22 07:35:00;;;;;;;;;9.75;7.75;15.60;99.90;;;;;;5076765;28;12162;-47
2022/03/22 07:37:32;;;;;;;;;8.75;8.00;15.60;99.90;;;;;;5072184;28;11159;-49
2022/03/22 07:40:06;;;;;;;;;7.00;7.00;15.50;99.90;;;;;;5073764;28;11136;-48
2022/03/22 07:42:39;;;;;;;;;6.25;6.25;15.50;99.90;;;;;;5067507;28;11133;-49
2022/03/22 07:45:11;;;;;;;;;4.25;4.25;15.50;99.90;;;;;;5078511;28;11463;-47
2022/03/22 07:47:43;;;;;;;;;11.00;9.75;15.40;99.90;;;;;;5070424;28;11207;-49
2022/03/22 07:53:12;;;;;;;;;7.00;7.00;15.40;99.90;;;;;;5078305;28;11486;-46
2022/03/22 07:55:43;;;;;;;;;7.25;6.25;15.30;99.90;;;;;;5069779;28;11433;-46
2022/03/22 07:58:13;;;;;;;;;7.25;7.25;15.30;99.90;;;;;;5065412;28;11468;-46
2022/03/22 08:00:45;;;;;;;;;6.00;6.00;15.30;99.90;;;;;;5070053;28;11476;-45
2022/03/22 08:03:18;;;;;;;;;8.25;8.25;15.30;99.90;;;;;;5072259;28;11297;-48
2022/03/22 08:05:48;;;;;;;;;11.50;9.75;15.30;99.90;;;;;;5067092;28;11649;-46
2022/03/22 08:08:21;;;;;;;;;9.00;8.50;15.30;99.90;;;;;;5065645;28;11479;-48
2022/03/22 08:11:06;;;;;;;;;8.25;7.50;15.30;99.90;;;;;;5070776;28;12199;-46
2022/03/22 08:13:40;;;;;;;;;3.00;3.00;15.20;99.90;;;;;;5070942;27;11464;-49
2022/03/22 08:16:10;;;;;;;;;5.50;5.50;15.20;99.90;;;;;;5077185;28;12176;-49
2022/03/22 08:18:41;;;;;;;;;9.75;7.75;15.20;99.90;;;;;;5071179;28;11442;-45
2022/03/22 08:21:11;;;;;;;;;9.75;9.25;15.20;99.90;;;;;;5073834;28;11594;-48
2022/03/22 08:23:43;;;;;;;;;5.75;4.75;15.20;99.90;;;;;;5068402;28;11638;-48
2022/03/22 08:26:16;;;;;;;;;5.75;5.75;15.10;99.90;;;;;;5070775;28;11906;-47
2022/03/22 08:28:46;;;;;;;;;7.50;7.00;15.10;99.90;;;;;;5069410;28;11838;-50
2022/03/22 08:31:17;;;;;;;;;11.25;10.00;15.10;99.90;;;;;;5075149;28;11463;-47
2022/03/22 08:33:48;;;;;;;;;8.75;8.75;15.10;99.90;;;;;;5076152;27;11441;-48
2022/03/22 08:36:21;;;;;;;;;7.25;7.25;15.00;99.90;;;;;;5074377;28;11460;-48
2022/03/22 08:38:52;;;;;;;;;6.00;6.00;15.00;99.90;;;;;;5074739;28;11478;-49
2022/03/22 08:41:22;;;;;;;;;8.00;6.25;15.00;99.90;;;;;;5077938;28;11446;-48
2022/03/22 08:43:53;;;;;;;;;9.25;9.25;15.00;99.90;;;;;;5068712;28;11468;-45
2022/03/22 08:46:24;;;;;;;;;6.75;6.75;14.90;99.90;;;;;;5074289;28;12295;-47
2022/03/22 08:48:55;;;;;;;;;6.50;6.50;14.90;99.90;;;;;;5080067;28;11447;-46
2022/03/22 08:51:26;;;;;;;;;5.25;4.00;14.90;99.90;;;;;;5069848;28;11471;-48
2022/03/22 08:53:56;;;;;;;;;6.25;6.25;14.90;99.90;;;;;;5073970;28;11476;-46
2022/03/22 08:56:27;;;;;;;;;7.50;7.50;14.90;99.90;;;;;;5076286;28;11454;-49
2022/03/22 08:58:58;;;;;;;;;7.50;7.50;14.90;99.90;;;;;;5074227;28;11567;-49
2022/03/22 09:01:34;;;;;;;;;8.75;6.50;14.90;99.90;;;;;;5063419;28;11481;-45
2022/03/22 09:06:55;;;;;;;;;6.50;6.50;14.80;99.90;;;;;;5070427;28;11502;-50
2022/03/22 09:09:29;;;;;;;;;6.00;4.00;14.80;99.90;;;;;;5072191;28;11445;-47
2022/03/22 09:12:00;;;;;;;;;6.75;6.75;14.80;99.90;;;;;;5066759;28;11470;-49
2022/03/22 09:14:30;;;;;;;;;8.50;8.50;14.80;99.90;;;;;;5066806;28;11465;-49
2022/03/22 09:17:01;;;;;;;;;6.00;6.00;14.80;99.90;;;;;;5058891;28;11469;-45
2022/03/22 09:19:34;;;;;;;;;7.25;6.00;14.70;99.90;;;;;;5078493;28;11497;-46
2022/03/22 09:22:25;;;;;;;;;5.75;5.75;14.70;99.90;;;;;;5068718;28;11651;-48
2022/03/22 09:24:56;;;;;;;;;6.50;6.50;14.70;99.90;;;;;;5072473;28;11405;-46
2022/03/22 09:27:27;;;;;;;;;7.00;5.50;14.60;99.90;;;;;;5069774;28;11448;-46
2022/03/22 09:29:57;;;;;;;;;7.50;7.50;14.60;99.90;;;;;;5067157;28;11447;-49
2022/03/22 09:32:28;;;;;;;;;5.25;5.25;14.60;99.90;;;;;;5069355;28;11430;-44
2022/03/22 09:35:00;;;;;;;;;6.50;6.50;14.60;99.90;;;;;;5065474;28;11999;-46
2022/03/22 09:37:31;;;;;;;;;5.50;4.75;14.60;99.90;;;;;;5074706;28;11432;-46
2022/03/22 09:40:01;;;;;;;;;7.75;7.00;14.50;99.90;;;;;;5071213;28;11480;-48
2022/03/22 09:42:31;;;;;;;;;5.50;5.50;14.50;99.90;;;;;;5076113;28;11539;-45
2022/03/22 09:45:02;;;;;;;;;6.00;6.00;14.50;99.90;;;;;;5071995;28;12295;-47
2022/03/22 09:47:32;;;;;;;;;8.25;7.00;14.50;99.90;;;;;;5070072;28;11403;-47
2022/03/22 09:50:06;;;;;;;;;7.00;7.00;14.50;99.90;;;;;;5070824;28;12211;-47
2022/03/22 09:52:37;;;;;;;;;6.00;6.00;14.40;99.90;;;;;;5071359;28;11578;-46
2022/03/22 09:55:10;;;;;;;;;6.00;6.00;14.40;99.90;;;;;;5080726;28;12276;-46
2022/03/22 09:57:40;;;;;;;;;6.25;6.25;14.40;99.90;;;;;;5073545;28;11438;-46
2022/03/22 10:00:15;;;;;;;;;6.25;6.25;14.40;99.90;;;;;;5073964;28;11487;-48
2022/03/22 10:02:46;;;;;;;;;8.25;7.00;14.40;99.90;;;;;;5079983;28;11402;-48
2022/03/22 10:05:26;;;;;;;;;6.25;6.25;14.40;99.90;;;;;;5081100;28;11437;-47
2022/03/22 10:08:08;;;;;;;;;6.00;6.00;14.40;99.90;;;;;;5066046;28;12413;-46
2022/03/22 10:10:54;;;;;;;;;9.25;7.50;14.30;99.90;;;;;;5070800;28;11462;-46
2022/03/22 10:13:25;;;;;;;;;5.50;5.50;14.30;99.90;;;;;;5073063;28;11478;-46
2022/03/22 10:16:04;;;;;;;;;6.00;6.00;14.30;99.90;;;;;;5086435;28;11465;-46
2022/03/22 10:18:36;;;;;;;;;2.50;2.50;14.30;99.90;;;;;;5071791;28;11477;-47
2022/03/22 10:21:07;;;;;;;;;5.00;5.00;14.30;99.90;;;;;;5075435;28;11436;-48
2022/03/22 10:23:55;;;;;;;;;6.00;6.00;14.30;99.90;;;;;;5071807;28;11453;-46
2022/03/22 10:26:35;;;;;;;;;6.00;6.00;14.30;99.90;;;;;;5067256;28;11442;-46
2022/03/22 10:29:10;;;;;;;;;7.00;7.00;14.20;99.90;;;;;;5068892;28;12170;-47
2022/03/22 10:31:43;;;;;;;;;4.75;4.75;14.20;99.90;;;;;;5072530;28;12206;-46
2022/03/22 10:34:17;;;;;;;;;4.25;4.25;14.20;99.90;;;;;;5069621;28;11485;-47
2022/03/22 10:36:49;;;;;;;;;4.00;4.00;14.10;99.90;;;;;;5072453;27;11447;-47
2022/03/22 10:39:21;;;;;;;;;5.00;5.00;14.10;99.90;;;;;;5071236;28;12019;-45
2022/03/22 10:41:51;;;;;;;;;5.75;5.00;14.10;99.90;;;;;;5076402;28;11471;-48
2022/03/22 10:44:23;;;;;;;;;4.00;4.00;14.10;99.90;;;;;;5072782;28;11453;-47
2022/03/22 10:46:54;;;;;;;;;4.25;4.25;14.10;99.90;;;;;;5069622;28;11461;-46
2022/03/22 10:49:26;;;;;;;;;7.50;6.50;14.10;99.90;;;;;;5067160;28;11770;-45
2022/03/22 10:52:19;;;;;;;;;5.00;4.50;14.10;99.90;;;;;;5077114;28;11422;-46
2022/03/22 10:54:48;;;;;;;;;5.00;5.00;14.10;99.90;;;;;;5069293;28;11408;-45
2022/03/22 10:57:28;;;;;;;;;7.25;6.00;14.00;99.90;;;;;;5077166;28;12127;-45
2022/03/22 11:00:06;;;;;;;;;7.75;7.75;14.00;99.90;;;;;;5072640;28;11568;-49
2022/03/22 11:02:38;;;;;;;;;6.50;6.50;14.00;99.90;;;;;;5073126;28;11448;-46
2022/03/22 11:05:09;;;;;;;;;8.50;5.50;13.90;99.90;;;;;;5080116;28;12239;-45
2022/03/22 11:07:42;;;;;;;;;5.00;5.00;13.90;99.90;;;;;;5072783;28;11458;-48
2022/03/22 11:10:12;;;;;;;;;3.00;1.75;13.90;99.90;;;;;;5073504;28;11442;-49
2022/03/22 11:12:42;;;;;;;;;5.00;5.00;13.90;99.90;;;;;;5070433;28;11435;-43
2022/03/22 11:15:14;;;;;;;;;5.00;4.00;13.90;99.90;;;;;;5074385;28;12229;-46
2022/03/22 11:17:49;;;;;;;;;5.00;5.00;13.90;99.90;;;;;;5071031;28;11441;-48
2022/03/22 11:20:22;;;;;;;;;9.00;7.00;13.80;99.90;;;;;;5069736;28;11445;-46
2022/03/22 11:23:00;;;;;;;;;5.75;5.75;13.80;99.90;;;;;;5075814;28;11584;-46
2022/03/22 11:25:35;;;;;;;;;5.25;5.25;13.80;99.90;;;;;;5068923;28;11499;-48
2022/03/22 11:28:08;;;;;;;;;4.00;4.00;13.80;99.90;;;;;;5071286;28;11481;-48
2022/03/22 11:30:40;;;;;;;;;5.75;4.75;13.80;99.90;;;;;;5077322;28;11483;-46
2022/03/22 11:36:12;;;;;;;;;5.75;5.75;13.80;99.90;;;;;;5074841;28;11400;-46
2022/03/22 11:38:46;;;;;;;;;5.25;5.25;13.80;99.90;;;;;;5075702;28;11456;-48
2022/03/22 11:44:39;;;;;;;;;7.00;6.00;13.70;99.90;;;;;;5071643;28;11427;-46
2022/03/22 11:47:20;;;;;;;;;4.50;4.50;13.70;99.90;;;;;;5067474;27;11470;-48
2022/03/22 11:50:06;;;;;;;;;9.25;5.75;13.70;99.90;;;;;;5076675;28;11540;-47
2022/03/22 11:52:41;;;;;;;;;7.00;6.50;13.70;99.90;;;;;;5071376;28;11495;-45
2022/03/22 11:55:14;;;;;;;;;5.50;5.50;13.70;99.90;;;;;;5081336;28;11453;-46
2022/03/22 11:57:51;;;;;;;;;7.25;7.25;13.70;99.90;;;;;;5076001;28;11458;-45
2022/03/22 12:00:42;;;;;;;;;8.00;6.00;13.70;99.90;;;;;;5071177;28;11454;-44
2022/03/22 12:03:16;;;;;;;;;5.25;5.25;13.70;99.90;;;;;;5063281;28;11489;-46
2022/03/22 12:05:47;;;;;;;;;6.75;6.75;13.70;99.90;;;;;;5077218;28;11572;-51
2022/03/22 12:08:17;;;;;;;;;6.50;6.50;13.70;99.90;;;;;;5071252;28;11473;-49
2022/03/22 12:10:48;;;;;;;;;5.50;5.50;13.60;99.90;;;;;;5075763;28;11437;-45
2022/03/22 12:13:21;;;;;;;;;5.00;5.00;13.60;99.90;;;;;;5079930;28;11441;-45
2022/03/22 12:15:58;;;;;;;;;8.00;6.50;13.60;99.90;;;;;;5075994;28;11571;-46
2022/03/22 12:18:32;;;;;;;;;4.25;4.25;13.60;99.90;;;;;;5074277;28;11465;-49
2022/03/22 12:21:04;;;;;;;;;6.25;5.75;13.60;99.90;;;;;;5075446;28;11523;-48
2022/03/22 12:23:35;;;;;;;;;6.50;6.50;13.60;99.90;;;;;;5068883;28;11451;-49
2022/03/22 12:26:07;;;;;;;;;6.00;6.00;13.60;99.90;;;;;;5071490;28;11468;-47
2022/03/22 12:28:51;;;;;;;;;8.00;5.25;13.60;99.90;;;;;;5074807;28;11473;-45
2022/03/22 12:31:22;;;;;;;;;7.00;5.25;13.60;99.90;;;;;;5065808;28;11809;-46
2022/03/22 12:33:56;;;;;;;;;6.00;4.50;13.60;99.90;;;;;;5070178;28;11427;-47
2022/03/22 12:36:27;;;;;;;;;5.00;4.00;13.60;99.90;;;;;;5070511;28;11436;-46
2022/03/22 12:38:57;;;;;;;;;4.00;4.00;13.50;99.90;;;;;;5069247;28;11469;-49
2022/03/22 12:41:28;;;;;;;;;11.25;7.25;13.50;99.90;;;;;;5074666;28;11472;-47
2022/03/22 12:43:58;;;;;;;;;5.00;5.00;13.50;99.90;;;;;;5066817;28;11486;-46
2022/03/22 12:46:29;;;;;;;;;5.25;3.50;13.50;99.90;;;;;;5069520;28;12138;-45
2022/03/22 12:49:00;;;;;;;;;5.25;3.75;13.50;99.90;;;;;;5064209;28;12134;-46
2022/03/22 12:51:32;;;;;;;;;6.25;6.25;13.50;99.90;;;;;;5080458;28;11457;-48
2022/03/22 12:54:06;;;;;;;;;5.25;5.00;13.50;99.90;;;;;;5069359;28;11493;-46
2022/03/22 12:56:48;;;;;;;;;6.75;6.75;13.50;99.90;;;;;;5068436;28;11461;-49
2022/03/22 12:59:28;;;;;;;;;5.00;5.00;13.50;99.90;;;;;;5066386;28;11727;-45
2022/03/22 13:01:59;;;;;;;;;5.75;5.75;13.50;99.90;;;;;;5069487;28;11619;-49
2022/03/22 13:04:31;;;;;;;;;6.75;6.25;13.50;99.90;;;;;;5076963;28;11448;-46
2022/03/22 13:07:08;;;;;;;;;6.75;6.00;13.50;99.90;;;;;;5072888;28;11456;-49
2022/03/22 13:12:27;;;;;;;;;8.00;6.75;13.40;99.90;;;;;;5073159;28;11877;-45
2022/03/22 13:15:14;;;;;;;;;6.00;4.00;13.40;99.90;;;;;;5071336;28;11625;-45
2022/03/22 13:17:48;;;;;;;;;6.00;6.00;13.40;99.90;;;;;;5070134;28;11452;-47
2022/03/22 13:20:27;;;;;;;;;7.00;7.00;13.40;99.90;;;;;;5070918;28;11412;-45
2022/03/22 13:23:06;;;;;;;;;6.00;6.00;13.40;99.90;;;;;;5069268;28;11452;-46
2022/03/22 13:25:42;;;;;;;;;6.25;6.25;13.40;99.90;;;;;;5072812;28;11422;-50
2022/03/22 13:28:16;;;;;;;;;5.00;5.00;13.40;99.90;;;;;;5073665;28;11667;-44
2022/03/22 13:30:49;;;;;;;;;2.00;2.00;13.40;99.90;;;;;;5078266;28;11439;-49
2022/03/22 13:33:33;;;;;;;;;7.00;7.00;13.40;99.90;;;;;;5086610;28;12234;-47
2022/03/22 13:36:04;;;;;;;;;6.25;6.25;13.40;99.90;;;;;;5073970;27;11451;-45
2022/03/22 13:38:34;;;;;;;;;7.25;6.00;13.30;99.90;;;;;;5084048;28;11476;-46
2022/03/22 13:41:07;;;;;;;;;7.25;7.25;13.30;99.90;;;;;;5075891;28;12138;-46
2022/03/22 13:43:47;;;;;;;;;8.25;6.75;13.40;99.90;;;;;;5080107;28;11475;-46
2022/03/22 13:46:16;;;;;;;;;3.75;2.75;13.30;99.90;;;;;;5067495;28;12441;-48
2022/03/22 13:48:51;;;;;;;;;7.00;6.25;13.30;99.90;;;;;;5075138;28;11766;-45
2022/03/22 13:51:23;;;;;;;;;4.00;4.00;13.30;99.90;;;;;;5070213;28;11487;-46
2022/03/22 13:53:55;;;;;;;;;5.25;5.25;13.30;99.90;;;;;;5078203;28;12096;-45